sensor_id;sensor_type;location;lat;lon;timestamp;temperature;humidity
8643;DHT22;4359;49.358;11.256;2022-07-05T00:01:44;14.50;99.90
8643;DHT22;4359;49.358;11.256;2022-07-05T00:04:10;14.40;99.90
8643;DHT22;4359;49.358;11.256;2022-07-05T00:06:36;14.40;99.90
8643;DHT22;4359;49.358;11.256;2022-07-05T00:09:01;14.40;99.90
8643;DHT22;4359;49.358;11.256;2022-07-05T00:11:27;14.40;99.90
8643;DHT22;4359;49.358;11.256;2022-07-05T00:13:53;14.40;99.90
8643;DHT22;4359;49.358;11.256;2022-07-05T00:16:18;14.40;99.90
8643;DHT22;4359;49.358;11.256;2022-07-05T00:18:44;14.30;99.90
8643;DHT22;4359;49.358;11.256;2022-07-05T00:21:10;14.30;99.90
8643;DHT22;4359;49.358;11.256;2022-07-05T00:23:36;14.20;99.90
8643;DHT22;4359;49.358;11.256;2022-07-05T00:26:02;14.20;99.90
8643;DHT22;4359;49.358;11.256;2022-07-05T00:28:27;14.10;99.90
8643;DHT22;4359;49.358;11.256;2022-07-05T00:30:53;14.00;99.90
8643;DHT22;4359;49.358;11.256;2022-07-05T00:33:19;13.90;99.90
8643;DHT22;4359;49.358;11.256;2022-07-05T00:35:44;13.90;99.90
8643;DHT22;4359;49.358;11.256;2022-07-05T00:38:10;13.80;99.90
8643;DHT22;4359;49.358;11.256;2022-07-05T00:40:36;13.80;99.90
8643;DHT22;4359;49.358;11.256;2022-07-05T00:43:02;13.70;99.90
8643;DHT22;4359;49.358;11.256;2022-07-05T00:45:30;13.60;99.90
8643;DHT22;4359;49.358;11.256;2022-07-05T00:47:56;13.60;99.90
8643;DHT22;4359;49.358;11.256;2022-07-05T00:53:06;13.50;99.90
8643;DHT22;4359;49.358;11.256;2022-07-05T00:55:32;13.50;99.90
8643;DHT22;4359;49.358;11.256;2022-07-05T00:57:58;13.40;99.90
8643;DHT22;4359;49.358;11.256;2022-07-05T01:00:24;13.30;99.90
8643;DHT22;4359;49.358;11.256;2022-07-05T01:02:51;13.20;99.90
8643;DHT22;4359;49.358;11.256;2022-07-05T01:05:17;13.10;99.90
8643;DHT22;4359;49.358;11.256;2022-07-05T01:07:43;13.00;99.90
8643;DHT22;4359;49.358;11.256;2022-07-05T01:10:09;12.90;99.90
8643;DHT22;4359;49.358;11.256;2022-07-05T01:12:38;12.90;99.90
8643;DHT22;4359;49.358;11.256;2022-07-05T01:15:05;12.80;99.90
8643;DHT22;4359;49.358;11.256;2022-07-05T01:17:31;12.70;99.90
8643;DHT22;4359;49.358;11.256;2022-07-05T01:19:58;12.70;99.90
8643;DHT22;4359;49.358;11.256;2022-07-05T01:22:26;12.60;99.90
8643;DHT22;4359;49.358;11.256;2022-07-05T01:24:52;12.50;99.90
8643;DHT22;4359;49.358;11.256;2022-07-05T01:27:19;12.40;99.90
8643;DHT22;4359;49.358;11.256;2022-07-05T01:29:45;12.30;99.90
8643;DHT22;4359;49.358;11.256;2022-07-05T01:32:11;12.30;99.90
8643;DHT22;4359;49.358;11.256;2022-07-05T01:34:38;12.30;99.90
8643;DHT22;4359;49.358;11.256;2022-07-05T01:37:04;12.20;99.90
8643;DHT22;4359;49.358;11.256;2022-07-05T01:39:31;12.20;99.90
8643;DHT22;4359;49.358;11.256;2022-07-05T01:41:56;12.20;99.90
8643;DHT22;4359;49.358;11.256;2022-07-05T01:44:22;12.10;99.90
8643;DHT22;4359;49.358;11.256;2022-07-05T01:46:51;12.10;99.90
8643;DHT22;4359;49.358;11.256;2022-07-05T01:49:20;12.00;99.90
8643;DHT22;4359;49.358;11.256;2022-07-05T01:52:07;12.00;99.90
8643;DHT22;4359;49.358;11.256;2022-07-05T01:54:33;11.90;99.90
8643;DHT22;4359;49.358;11.256;2022-07-05T01:56:59;11.90;99.90
8643;DHT22;4359;49.358;11.256;2022-07-05T01:59:27;11.80;99.90
8643;DHT22;4359;49.358;11.256;2022-07-05T02:01:53;11.80;99.90
8643;DHT22;4359;49.358;11.256;2022-07-05T02:04:19;11.70;99.90
8643;DHT22;4359;49.358;11.256;2022-07-05T02:06:45;11.60;99.90
8643;DHT22;4359;49.358;11.256;2022-07-05T02:09:11;11.60;99.90
8643;DHT22;4359;49.358;11.256;2022-07-05T02:11:36;11.60;99.90
8643;DHT22;4359;49.358;11.256;2022-07-05T02:14:03;11.50;99.90
8643;DHT22;4359;49.358;11.256;2022-07-05T02:16:29;11.50;99.90
8643;DHT22;4359;49.358;11.256;2022-07-05T02:18:55;11.50;99.90
8643;DHT22;4359;49.358;11.256;2022-07-05T02:21:21;11.40;99.90
8643;DHT22;4359;49.358;11.256;2022-07-05T02:23:47;11.40;99.90
8643;DHT22;4359;49.358;11.256;2022-07-05T02:26:13;11.40;99.90
8643;DHT22;4359;49.358;11.256;2022-07-05T02:28:39;11.30;99.90
8643;DHT22;4359;49.358;11.256;2022-07-05T02:31:05;11.30;99.90
8643;DHT22;4359;49.358;11.256;2022-07-05T02:33:30;11.30;99.90
8643;DHT22;4359;49.358;11.256;2022-07-05T02:35:56;11.20;99.90
8643;DHT22;4359;49.358;11.256;2022-07-05T02:38:22;11.20;99.90
8643;DHT22;4359;49.358;11.256;2022-07-05T02:40:48;11.10;99.90
8643;DHT22;4359;49.358;11.256;2022-07-05T02:43:14;11.10;99.90
8643;DHT22;4359;49.358;11.256;2022-07-05T02:45:39;11.10;99.90
8643;DHT22;4359;49.358;11.256;2022-07-05T02:48:05;11.10;99.90
8643;DHT22;4359;49.358;11.256;2022-07-05T02:50:31;11.00;99.90
8643;DHT22;4359;49.358;11.256;2022-07-05T02:52:56;11.00;99.90
8643;DHT22;4359;49.358;11.256;2022-07-05T02:55:22;10.90;99.90
8643;DHT22;4359;49.358;11.256;2022-07-05T02:57:48;10.90;99.90
8643;DHT22;4359;49.358;11.256;2022-07-05T03:00:14;10.80;99.90
8643;DHT22;4359;49.358;11.256;2022-07-05T03:02:40;10.70;99.90
8643;DHT22;4359;49.358;11.256;2022-07-05T03:05:05;10.70;99.90
8643;DHT22;4359;49.358;11.256;2022-07-05T03:07:31;10.60;99.90
8643;DHT22;4359;49.358;11.256;2022-07-05T03:09:57;10.60;99.90
8643;DHT22;4359;49.358;11.256;2022-07-05T03:12:22;10.60;99.90
8643;DHT22;4359;49.358;11.256;2022-07-05T03:14:48;10.60;99.90
8643;DHT22;4359;49.358;11.256;2022-07-05T03:17:14;10.60;99.90
8643;DHT22;4359;49.358;11.256;2022-07-05T03:19:40;10.50;99.90
8643;DHT22;4359;49.358;11.256;2022-07-05T03:22:05;10.50;99.90
8643;DHT22;4359;49.358;11.256;2022-07-05T03:24:31;10.50;99.90
8643;DHT22;4359;49.358;11.256;2022-07-05T03:26:56;10.40;99.90
8643;DHT22;4359;49.358;11.256;2022-07-05T03:29:22;10.40;99.90
8643;DHT22;4359;49.358;11.256;2022-07-05T03:31:48;10.30;99.90
8643;DHT22;4359;49.358;11.256;2022-07-05T03:34:13;10.30;99.90
8643;DHT22;4359;49.358;11.256;2022-07-05T03:36:39;10.30;99.90
8643;DHT22;4359;49.358;11.256;2022-07-05T03:39:05;10.30;99.90
8643;DHT22;4359;49.358;11.256;2022-07-05T03:41:30;10.30;99.90
8643;DHT22;4359;49.358;11.256;2022-07-05T03:43:56;10.40;99.90
8643;DHT22;4359;49.358;11.256;2022-07-05T03:46:21;10.30;99.90
8643;DHT22;4359;49.358;11.256;2022-07-05T03:48:47;10.30;99.90
8643;DHT22;4359;49.358;11.256;2022-07-05T03:51:13;10.40;99.90
8643;DHT22;4359;49.358;11.256;2022-07-05T03:53:39;10.40;99.90
8643;DHT22;4359;49.358;11.256;2022-07-05T03:56:04;10.30;99.90
8643;DHT22;4359;49.358;11.256;2022-07-05T03:58:30;10.30;99.90
8643;DHT22;4359;49.358;11.256;2022-07-05T04:00:56;10.20;99.90
8643;DHT22;4359;49.358;11.256;2022-07-05T04:03:21;10.20;99.90
8643;DHT22;4359;49.358;11.256;2022-07-05T04:05:47;10.20;99.90
8643;DHT22;4359;49.358;11.256;2022-07-05T04:08:13;10.20;99.90
8643;DHT22;4359;49.358;11.256;2022-07-05T04:10:38;10.30;99.90
8643;DHT22;4359;49.358;11.256;2022-07-05T04:13:04;10.30;99.90
8643;DHT22;4359;49.358;11.256;2022-07-05T04:15:30;10.40;99.90
8643;DHT22;4359;49.358;11.256;2022-07-05T04:17:56;10.60;99.90
8643;DHT22;4359;49.358;11.256;2022-07-05T04:20:23;10.70;99.90
8643;DHT22;4359;49.358;11.256;2022-07-05T04:22:50;10.90;99.90
8643;DHT22;4359;49.358;11.256;2022-07-05T04:25:17;11.00;99.90
8643;DHT22;4359;49.358;11.256;2022-07-05T04:27:53;11.20;99.90
8643;DHT22;4359;49.358;11.256;2022-07-05T04:30:21;11.40;99.90
8643;DHT22;4359;49.358;11.256;2022-07-05T04:32:47;11.50;99.90
8643;DHT22;4359;49.358;11.256;2022-07-05T04:35:13;11.70;99.90
8643;DHT22;4359;49.358;11.256;2022-07-05T04:37:40;11.90;99.90
8643;DHT22;4359;49.358;11.256;2022-07-05T04:40:07;12.00;99.90
8643;DHT22;4359;49.358;11.256;2022-07-05T04:42:33;12.10;99.90
8643;DHT22;4359;49.358;11.256;2022-07-05T04:44:59;12.10;99.90
8643;DHT22;4359;49.358;11.256;2022-07-05T04:47:26;12.20;99.90
8643;DHT22;4359;49.358;11.256;2022-07-05T04:49:53;12.40;99.90
8643;DHT22;4359;49.358;11.256;2022-07-05T04:52:19;12.60;99.90
8643;DHT22;4359;49.358;11.256;2022-07-05T04:54:45;12.90;99.90
8643;DHT22;4359;49.358;11.256;2022-07-05T04:57:11;13.20;99.90
8643;DHT22;4359;49.358;11.256;2022-07-05T04:59:36;13.50;99.90
8643;DHT22;4359;49.358;11.256;2022-07-05T05:02:02;13.80;99.90
8643;DHT22;4359;49.358;11.256;2022-07-05T05:04:28;14.00;99.90
8643;DHT22;4359;49.358;11.256;2022-07-05T05:06:54;14.30;99.90
8643;DHT22;4359;49.358;11.256;2022-07-05T05:09:19;14.50;99.90
8643;DHT22;4359;49.358;11.256;2022-07-05T05:11:46;14.70;99.90
8643;DHT22;4359;49.358;11.256;2022-07-05T05:14:12;14.90;99.90
8643;DHT22;4359;49.358;11.256;2022-07-05T05:16:38;15.00;99.90
8643;DHT22;4359;49.358;11.256;2022-07-05T05:19:04;15.30;99.90
8643;DHT22;4359;49.358;11.256;2022-07-05T05:21:29;15.50;99.90
8643;DHT22;4359;49.358;11.256;2022-07-05T05:23:55;15.70;99.90
8643;DHT22;4359;49.358;11.256;2022-07-05T05:26:21;15.90;99.90
8643;DHT22;4359;49.358;11.256;2022-07-05T05:28:46;16.10;99.90
8643;DHT22;4359;49.358;11.256;2022-07-05T05:31:12;16.30;99.90
8643;DHT22;4359;49.358;11.256;2022-07-05T05:33:38;16.60;99.90
8643;DHT22;4359;49.358;11.256;2022-07-05T05:36:03;16.60;99.90
8643;DHT22;4359;49.358;11.256;2022-07-05T05:38:29;16.50;99.90
8643;DHT22;4359;49.358;11.256;2022-07-05T05:40:55;16.60;99.90
8643;DHT22;4359;49.358;11.256;2022-07-05T05:43:20;16.90;99.90
8643;DHT22;4359;49.358;11.256;2022-07-05T05:45:46;17.10;99.90
8643;DHT22;4359;49.358;11.256;2022-07-05T05:48:12;17.30;99.90
8643;DHT22;4359;49.358;11.256;2022-07-05T05:50:38;17.50;99.90
8643;DHT22;4359;49.358;11.256;2022-07-05T05:53:04;17.70;99.90
8643;DHT22;4359;49.358;11.256;2022-07-05T05:55:31;18.10;99.90
8643;DHT22;4359;49.358;11.256;2022-07-05T05:58:19;18.30;99.90
8643;DHT22;4359;49.358;11.256;2022-07-05T06:00:50;18.50;99.90
8643;DHT22;4359;49.358;11.256;2022-07-05T06:03:25;18.70;99.90
8643;DHT22;4359;49.358;11.256;2022-07-05T06:05:52;19.00;99.90
8643;DHT22;4359;49.358;11.256;2022-07-05T06:08:18;19.20;99.90
8643;DHT22;4359;49.358;11.256;2022-07-05T06:10:45;19.40;99.90
8643;DHT22;4359;49.358;11.256;2022-07-05T06:13:12;19.50;99.90
8643;DHT22;4359;49.358;11.256;2022-07-05T06:15:39;19.70;99.90
8643;DHT22;4359;49.358;11.256;2022-07-05T06:18:07;19.90;99.90
8643;DHT22;4359;49.358;11.256;2022-07-05T06:20:34;19.70;99.90
8643;DHT22;4359;49.358;11.256;2022-07-05T06:23:01;19.80;99.90
8643;DHT22;4359;49.358;11.256;2022-07-05T06:25:27;19.90;99.90
8643;DHT22;4359;49.358;11.256;2022-07-05T06:28:00;20.10;99.90
8643;DHT22;4359;49.358;11.256;2022-07-05T06:30:27;20.40;99.90
8643;DHT22;4359;49.358;11.256;2022-07-05T06:32:53;20.70;99.90
8643;DHT22;4359;49.358;11.256;2022-07-05T06:35:21;21.00;99.90
8643;DHT22;4359;49.358;11.256;2022-07-05T06:37:52;21.20;99.90
8643;DHT22;4359;49.358;11.256;2022-07-05T06:40:31;21.40;99.90
8643;DHT22;4359;49.358;11.256;2022-07-05T06:42:59;21.80;99.90
8643;DHT22;4359;49.358;11.256;2022-07-05T06:45:25;21.90;99.90
8643;DHT22;4359;49.358;11.256;2022-07-05T06:47:58;22.20;99.90
8643;DHT22;4359;49.358;11.256;2022-07-05T06:50:31;22.40;99.90
8643;DHT22;4359;49.358;11.256;2022-07-05T06:53:00;22.60;99.90
8643;DHT22;4359;49.358;11.256;2022-07-05T06:55:26;22.60;99.90
8643;DHT22;4359;49.358;11.256;2022-07-05T06:57:58;22.40;99.90
8643;DHT22;4359;49.358;11.256;2022-07-05T07:00:24;22.40;99.90
8643;DHT22;4359;49.358;11.256;2022-07-05T07:02:50;22.50;99.90
8643;DHT22;4359;49.358;11.256;2022-07-05T07:05:16;22.90;99.90
8643;DHT22;4359;49.358;11.256;2022-07-05T07:07:42;23.30;99.90
8643;DHT22;4359;49.358;11.256;2022-07-05T07:10:26;23.50;99.90
8643;DHT22;4359;49.358;11.256;2022-07-05T07:12:52;23.80;99.90
8643;DHT22;4359;49.358;11.256;2022-07-05T07:15:17;23.90;99.90
8643;DHT22;4359;49.358;11.256;2022-07-05T07:17:43;24.20;99.90
8643;DHT22;4359;49.358;11.256;2022-07-05T07:20:09;24.60;99.90
8643;DHT22;4359;49.358;11.256;2022-07-05T07:22:35;25.00;99.90
8643;DHT22;4359;49.358;11.256;2022-07-05T07:25:00;24.80;99.90
8643;DHT22;4359;49.358;11.256;2022-07-05T07:27:26;25.00;99.90
8643;DHT22;4359;49.358;11.256;2022-07-05T07:29:52;25.30;99.70
8643;DHT22;4359;49.358;11.256;2022-07-05T07:32:17;25.30;99.90
8643;DHT22;4359;49.358;11.256;2022-07-05T07:34:44;25.50;99.90
8643;DHT22;4359;49.358;11.256;2022-07-05T07:37:10;25.80;99.30
8643;DHT22;4359;49.358;11.256;2022-07-05T07:39:39;25.70;99.30
8643;DHT22;4359;49.358;11.256;2022-07-05T07:42:06;25.50;98.30
8643;DHT22;4359;49.358;11.256;2022-07-05T07:44:32;25.70;98.00
8643;DHT22;4359;49.358;11.256;2022-07-05T07:46:58;26.10;97.60
8643;DHT22;4359;49.358;11.256;2022-07-05T07:49:23;26.50;96.70
8643;DHT22;4359;49.358;11.256;2022-07-05T07:51:51;26.60;96.10
8643;DHT22;4359;49.358;11.256;2022-07-05T07:54:17;26.50;96.60
8643;DHT22;4359;49.358;11.256;2022-07-05T07:56:43;26.50;95.00
8643;DHT22;4359;49.358;11.256;2022-07-05T07:59:09;26.60;95.70
8643;DHT22;4359;49.358;11.256;2022-07-05T08:01:35;26.70;94.40
8643;DHT22;4359;49.358;11.256;2022-07-05T08:04:01;26.70;94.90
8643;DHT22;4359;49.358;11.256;2022-07-05T08:06:26;26.90;93.90
8643;DHT22;4359;49.358;11.256;2022-07-05T08:08:52;26.60;93.20
8643;DHT22;4359;49.358;11.256;2022-07-05T08:11:17;26.40;91.50
8643;DHT22;4359;49.358;11.256;2022-07-05T08:13:43;26.50;91.80
8643;DHT22;4359;49.358;11.256;2022-07-05T08:16:10;26.90;91.70
8643;DHT22;4359;49.358;11.256;2022-07-05T08:18:36;27.00;91.60
8643;DHT22;4359;49.358;11.256;2022-07-05T08:21:20;26.90;91.40
8643;DHT22;4359;49.358;11.256;2022-07-05T08:23:58;26.70;91.00
8643;DHT22;4359;49.358;11.256;2022-07-05T08:26:25;26.10;91.50
8643;DHT22;4359;49.358;11.256;2022-07-05T08:28:51;26.10;91.50
8643;DHT22;4359;49.358;11.256;2022-07-05T08:31:17;26.60;91.20
8643;DHT22;4359;49.358;11.256;2022-07-05T08:33:43;26.90;91.00
8643;DHT22;4359;49.358;11.256;2022-07-05T08:36:09;26.90;90.70
8643;DHT22;4359;49.358;11.256;2022-07-05T08:38:34;26.90;91.00
8643;DHT22;4359;49.358;11.256;2022-07-05T08:41:01;27.30;91.30
8643;DHT22;4359;49.358;11.256;2022-07-05T08:43:28;27.40;90.60
8643;DHT22;4359;49.358;11.256;2022-07-05T08:45:57;27.50;90.60
8643;DHT22;4359;49.358;11.256;2022-07-05T08:48:24;27.30;90.90
8643;DHT22;4359;49.358;11.256;2022-07-05T08:50:53;26.90;91.50
8643;DHT22;4359;49.358;11.256;2022-07-05T08:53:21;26.50;91.30
8643;DHT22;4359;49.358;11.256;2022-07-05T08:55:47;26.00;91.90
8643;DHT22;4359;49.358;11.256;2022-07-05T08:58:13;25.20;92.20
8643;DHT22;4359;49.358;11.256;2022-07-05T09:00:40;25.50;92.40
8643;DHT22;4359;49.358;11.256;2022-07-05T09:03:07;26.30;92.50
8643;DHT22;4359;49.358;11.256;2022-07-05T09:05:42;26.10;91.40
8643;DHT22;4359;49.358;11.256;2022-07-05T09:08:10;26.00;91.90
8643;DHT22;4359;49.358;11.256;2022-07-05T09:10:37;26.40;90.70
8643;DHT22;4359;49.358;11.256;2022-07-05T09:13:03;26.80;89.20
8643;DHT22;4359;49.358;11.256;2022-07-05T09:15:29;26.80;89.20
8643;DHT22;4359;49.358;11.256;2022-07-05T09:17:55;26.30;89.10
8643;DHT22;4359;49.358;11.256;2022-07-05T09:20:21;25.50;90.40
8643;DHT22;4359;49.358;11.256;2022-07-05T09:22:50;24.80;90.40
8643;DHT22;4359;49.358;11.256;2022-07-05T09:25:22;24.70;90.70
8643;DHT22;4359;49.358;11.256;2022-07-05T09:28:01;25.20;91.30
8643;DHT22;4359;49.358;11.256;2022-07-05T09:30:36;25.70;90.80
8643;DHT22;4359;49.358;11.256;2022-07-05T09:33:13;26.30;90.40
8643;DHT22;4359;49.358;11.256;2022-07-05T09:35:41;26.90;89.50
8643;DHT22;4359;49.358;11.256;2022-07-05T09:38:20;27.50;87.40
8643;DHT22;4359;49.358;11.256;2022-07-05T09:40:51;27.90;84.90
8643;DHT22;4359;49.358;11.256;2022-07-05T09:43:21;28.00;86.50
8643;DHT22;4359;49.358;11.256;2022-07-05T09:45:57;28.40;85.30
8643;DHT22;4359;49.358;11.256;2022-07-05T09:48:24;28.80;85.10
8643;DHT22;4359;49.358;11.256;2022-07-05T09:50:51;29.00;86.00
8643;DHT22;4359;49.358;11.256;2022-07-05T09:53:18;28.80;83.60
8643;DHT22;4359;49.358;11.256;2022-07-05T09:56:03;27.60;84.40
8643;DHT22;4359;49.358;11.256;2022-07-05T09:58:29;27.00;86.90
8643;DHT22;4359;49.358;11.256;2022-07-05T10:00:55;27.40;86.20
8643;DHT22;4359;49.358;11.256;2022-07-05T10:03:21;27.90;83.50
8643;DHT22;4359;49.358;11.256;2022-07-05T10:05:47;28.20;83.20
8643;DHT22;4359;49.358;11.256;2022-07-05T10:08:13;27.70;82.90
8643;DHT22;4359;49.358;11.256;2022-07-05T10:10:41;27.20;82.10
8643;DHT22;4359;49.358;11.256;2022-07-05T10:13:06;27.50;81.60
8643;DHT22;4359;49.358;11.256;2022-07-05T10:15:34;27.90;80.90
8643;DHT22;4359;49.358;11.256;2022-07-05T10:18:07;28.30;81.40
8643;DHT22;4359;49.358;11.256;2022-07-05T10:23:07;28.00;79.00
8643;DHT22;4359;49.358;11.256;2022-07-05T10:25:38;27.90;81.30
8643;DHT22;4359;49.358;11.256;2022-07-05T10:28:05;28.60;78.10
8643;DHT22;4359;49.358;11.256;2022-07-05T10:30:32;29.10;77.90
8643;DHT22;4359;49.358;11.256;2022-07-05T10:33:00;29.60;78.20
8643;DHT22;4359;49.358;11.256;2022-07-05T10:35:26;29.30;77.60
8643;DHT22;4359;49.358;11.256;2022-07-05T10:37:53;28.50;77.20
8643;DHT22;4359;49.358;11.256;2022-07-05T10:40:19;27.60;79.40
8643;DHT22;4359;49.358;11.256;2022-07-05T10:42:53;27.80;78.90
8643;DHT22;4359;49.358;11.256;2022-07-05T10:50:47;28.90;77.20
8643;DHT22;4359;49.358;11.256;2022-07-05T10:53:14;28.20;76.40
8643;DHT22;4359;49.358;11.256;2022-07-05T10:58:35;27.60;79.30
8643;DHT22;4359;49.358;11.256;2022-07-05T11:03:46;27.10;82.10
8643;DHT22;4359;49.358;11.256;2022-07-05T11:11:40;29.60;77.70
8643;DHT22;4359;49.358;11.256;2022-07-05T11:16:45;30.00;76.10
8643;DHT22;4359;49.358;11.256;2022-07-05T11:19:15;30.50;75.50
8643;DHT22;4359;49.358;11.256;2022-07-05T11:22:02;31.00;71.70
8643;DHT22;4359;49.358;11.256;2022-07-05T11:24:37;29.30;74.10
8643;DHT22;4359;49.358;11.256;2022-07-05T11:27:04;28.30;75.20
8643;DHT22;4359;49.358;11.256;2022-07-05T11:29:51;27.20;77.60
8643;DHT22;4359;49.358;11.256;2022-07-05T11:34:44;26.30;79.90
8643;DHT22;4359;49.358;11.256;2022-07-05T11:39:45;28.10;79.90
8643;DHT22;4359;49.358;11.256;2022-07-05T11:42:19;29.20;77.60
8643;DHT22;4359;49.358;11.256;2022-07-05T11:44:49;29.30;77.90
8643;DHT22;4359;49.358;11.256;2022-07-05T11:47:18;29.00;77.80
8643;DHT22;4359;49.358;11.256;2022-07-05T11:49:54;29.30;76.40
8643;DHT22;4359;49.358;11.256;2022-07-05T11:52:32;28.90;77.80
8643;DHT22;4359;49.358;11.256;2022-07-05T11:54:59;29.30;76.10
8643;DHT22;4359;49.358;11.256;2022-07-05T11:57:25;29.90;77.50
8643;DHT22;4359;49.358;11.256;2022-07-05T11:59:51;30.20;74.20
8643;DHT22;4359;49.358;11.256;2022-07-05T12:02:17;30.20;73.10
8643;DHT22;4359;49.358;11.256;2022-07-05T12:04:52;30.60;72.20
8643;DHT22;4359;49.358;11.256;2022-07-05T12:07:32;31.40;74.00
8643;DHT22;4359;49.358;11.256;2022-07-05T12:09:59;31.40;72.00
8643;DHT22;4359;49.358;11.256;2022-07-05T12:12:44;30.00;72.80
8643;DHT22;4359;49.358;11.256;2022-07-05T12:15:13;28.70;73.60
8643;DHT22;4359;49.358;11.256;2022-07-05T12:17:41;28.60;75.20
8643;DHT22;4359;49.358;11.256;2022-07-05T12:20:20;29.30;74.40
8643;DHT22;4359;49.358;11.256;2022-07-05T12:22:46;30.00;73.20
8643;DHT22;4359;49.358;11.256;2022-07-05T12:25:21;30.50;71.50
8643;DHT22;4359;49.358;11.256;2022-07-05T12:27:49;31.20;70.90
8643;DHT22;4359;49.358;11.256;2022-07-05T12:30:16;31.20;69.70
8643;DHT22;4359;49.358;11.256;2022-07-05T12:35:31;31.30;71.30
8643;DHT22;4359;49.358;11.256;2022-07-05T12:38:18;32.00;69.30
8643;DHT22;4359;49.358;11.256;2022-07-05T12:40:56;32.20;67.50
8643;DHT22;4359;49.358;11.256;2022-07-05T12:43:22;31.30;68.90
8643;DHT22;4359;49.358;11.256;2022-07-05T12:46:06;31.40;68.10
8643;DHT22;4359;49.358;11.256;2022-07-05T12:48:35;30.90;68.60
8643;DHT22;4359;49.358;11.256;2022-07-05T12:51:02;31.10;70.10
8643;DHT22;4359;49.358;11.256;2022-07-05T12:53:28;31.10;68.80
8643;DHT22;4359;49.358;11.256;2022-07-05T12:56:14;31.20;69.40
8643;DHT22;4359;49.358;11.256;2022-07-05T12:59:03;30.50;68.20
8643;DHT22;4359;49.358;11.256;2022-07-05T13:01:34;30.40;69.70
8643;DHT22;4359;49.358;11.256;2022-07-05T13:09:35;31.60;66.60
8643;DHT22;4359;49.358;11.256;2022-07-05T13:12:18;31.70;68.20
8643;DHT22;4359;49.358;11.256;2022-07-05T13:14:50;31.20;68.70
8643;DHT22;4359;49.358;11.256;2022-07-05T13:17:20;31.60;67.50
8643;DHT22;4359;49.358;11.256;2022-07-05T13:19:47;32.00;68.30
8643;DHT22;4359;49.358;11.256;2022-07-05T13:22:13;31.80;65.30
8643;DHT22;4359;49.358;11.256;2022-07-05T13:24:39;32.10;66.40
8643;DHT22;4359;49.358;11.256;2022-07-05T13:27:05;32.10;68.70
8643;DHT22;4359;49.358;11.256;2022-07-05T13:29:32;32.50;66.80
8643;DHT22;4359;49.358;11.256;2022-07-05T13:31:57;31.60;63.90
8643;DHT22;4359;49.358;11.256;2022-07-05T13:34:23;30.30;67.40
8643;DHT22;4359;49.358;11.256;2022-07-05T13:36:54;29.50;67.20
8643;DHT22;4359;49.358;11.256;2022-07-05T13:39:20;29.00;68.40
8643;DHT22;4359;49.358;11.256;2022-07-05T13:41:52;28.50;68.80
8643;DHT22;4359;49.358;11.256;2022-07-05T13:44:18;28.30;69.50
8643;DHT22;4359;49.358;11.256;2022-07-05T13:46:44;28.60;70.30
8643;DHT22;4359;49.358;11.256;2022-07-05T13:49:10;29.40;69.00
8643;DHT22;4359;49.358;11.256;2022-07-05T13:51:36;29.90;68.80
8643;DHT22;4359;49.358;11.256;2022-07-05T13:54:01;30.20;66.80
8643;DHT22;4359;49.358;11.256;2022-07-05T13:56:27;30.30;68.50
8643;DHT22;4359;49.358;11.256;2022-07-05T13:58:55;31.00;66.20
8643;DHT22;4359;49.358;11.256;2022-07-05T14:01:22;31.20;66.90
8643;DHT22;4359;49.358;11.256;2022-07-05T14:03:52;31.30;66.40
8643;DHT22;4359;49.358;11.256;2022-07-05T14:06:19;30.90;65.80
8643;DHT22;4359;49.358;11.256;2022-07-05T14:08:45;30.30;66.90
8643;DHT22;4359;49.358;11.256;2022-07-05T14:11:11;30.80;65.80
8643;DHT22;4359;49.358;11.256;2022-07-05T14:13:38;30.80;65.60
8643;DHT22;4359;49.358;11.256;2022-07-05T14:16:04;30.70;65.60
8643;DHT22;4359;49.358;11.256;2022-07-05T14:18:30;30.80;65.00
8643;DHT22;4359;49.358;11.256;2022-07-05T14:20:56;31.50;66.30
8643;DHT22;4359;49.358;11.256;2022-07-05T14:23:22;32.30;64.00
8643;DHT22;4359;49.358;11.256;2022-07-05T14:25:48;32.30;64.10
8643;DHT22;4359;49.358;11.256;2022-07-05T14:28:13;32.00;62.70
8643;DHT22;4359;49.358;11.256;2022-07-05T14:30:42;30.50;63.20
8643;DHT22;4359;49.358;11.256;2022-07-05T14:33:09;30.10;65.00
8643;DHT22;4359;49.358;11.256;2022-07-05T14:35:36;30.50;65.80
8643;DHT22;4359;49.358;11.256;2022-07-05T14:38:02;31.10;66.50
8643;DHT22;4359;49.358;11.256;2022-07-05T14:40:28;31.90;63.40
8643;DHT22;4359;49.358;11.256;2022-07-05T14:42:56;32.30;63.80
8643;DHT22;4359;49.358;11.256;2022-07-05T14:45:23;32.40;61.80
8643;DHT22;4359;49.358;11.256;2022-07-05T14:47:49;32.50;61.80
8643;DHT22;4359;49.358;11.256;2022-07-05T14:50:15;32.40;61.80
8643;DHT22;4359;49.358;11.256;2022-07-05T14:52:42;31.70;64.10
8643;DHT22;4359;49.358;11.256;2022-07-05T14:55:08;30.90;64.70
8643;DHT22;4359;49.358;11.256;2022-07-05T14:57:38;31.50;65.70
8643;DHT22;4359;49.358;11.256;2022-07-05T15:00:10;32.40;61.20
8643;DHT22;4359;49.358;11.256;2022-07-05T15:02:36;33.00;61.00
8643;DHT22;4359;49.358;11.256;2022-07-05T15:05:02;33.60;60.80
8643;DHT22;4359;49.358;11.256;2022-07-05T15:07:28;34.20;60.20
8643;DHT22;4359;49.358;11.256;2022-07-05T15:09:54;34.40;61.40
8643;DHT22;4359;49.358;11.256;2022-07-05T15:12:20;34.10;59.50
8643;DHT22;4359;49.358;11.256;2022-07-05T15:14:46;34.10;60.40
8643;DHT22;4359;49.358;11.256;2022-07-05T15:17:11;33.80;59.00
8643;DHT22;4359;49.358;11.256;2022-07-05T15:19:37;34.00;59.30
8643;DHT22;4359;49.358;11.256;2022-07-05T15:22:05;34.60;58.40
8643;DHT22;4359;49.358;11.256;2022-07-05T15:24:31;35.30;59.10
8643;DHT22;4359;49.358;11.256;2022-07-05T15:26:57;35.80;56.50
8643;DHT22;4359;49.358;11.256;2022-07-05T15:29:23;35.80;57.10
8643;DHT22;4359;49.358;11.256;2022-07-05T15:31:49;35.60;56.90
8643;DHT22;4359;49.358;11.256;2022-07-05T15:34:15;35.30;57.20
8643;DHT22;4359;49.358;11.256;2022-07-05T15:36:40;34.70;57.80
8643;DHT22;4359;49.358;11.256;2022-07-05T15:39:06;33.80;58.00
8643;DHT22;4359;49.358;11.256;2022-07-05T15:41:35;33.70;58.40
8643;DHT22;4359;49.358;11.256;2022-07-05T15:44:02;32.70;58.50
8643;DHT22;4359;49.358;11.256;2022-07-05T15:46:28;31.40;60.30
8643;DHT22;4359;49.358;11.256;2022-07-05T15:49:14;31.20;61.00
8643;DHT22;4359;49.358;11.256;2022-07-05T15:51:40;30.90;61.60
8643;DHT22;4359;49.358;11.256;2022-07-05T15:54:06;30.60;62.50
8643;DHT22;4359;49.358;11.256;2022-07-05T15:56:31;30.10;62.90
8643;DHT22;4359;49.358;11.256;2022-07-05T15:58:57;29.60;64.10
8643;DHT22;4359;49.358;11.256;2022-07-05T16:01:22;29.50;63.50
8643;DHT22;4359;49.358;11.256;2022-07-05T16:03:48;29.30;63.00
8643;DHT22;4359;49.358;11.256;2022-07-05T16:06:14;29.50;63.00
8643;DHT22;4359;49.358;11.256;2022-07-05T16:08:39;29.90;62.30
8643;DHT22;4359;49.358;11.256;2022-07-05T16:11:05;31.10;61.60
8643;DHT22;4359;49.358;11.256;2022-07-05T16:13:31;32.10;60.10
8643;DHT22;4359;49.358;11.256;2022-07-05T16:15:57;33.00;58.70
8643;DHT22;4359;49.358;11.256;2022-07-05T16:18:43;33.70;57.80
8643;DHT22;4359;49.358;11.256;2022-07-05T16:21:10;33.40;57.70
8643;DHT22;4359;49.358;11.256;2022-07-05T16:23:37;33.30;59.00
8643;DHT22;4359;49.358;11.256;2022-07-05T16:26:04;33.90;58.90